High gust

Not for real navigation. The accuracy of this data is not assured See disclaimer for more information



ICAO NAME COUNTRY WIND Kt GUST Kt VIS m TEMP/DEW C BARO METAR
PATO PORTAGE GLACIER AK United States 24 49 6400 12/8 29.76 PATO 181241Z AUTO 14024G49KT 090V190 4SM RA BKN029 OVC036 12/08 A2976 RMK AO2 PK WND 10050/1202 PRES
LTDA 25 40 9999 30/16 29.71 LTDA 181232Z 21025G40KT 9999 SCT035 30/16 Q1006 NOSIG RMK RWY04 23024KT
PAWD Seward AK United States 19 40 4800 13/11 29.70 PAWD 181217Z AUTO 18019G40KT 3SM RA BR BKN041 OVC050 13/11 A2970 RMK AO2 PK WND 17040/1208 P0013 T01
KSPR Ship Shoal LA United States 35 40 11200 26/22 30.04 KSPR 181235Z AUTO 17035G40KT 7SM FEW026 SCT042 BKN100 26/22 A3004 RMK A01
EGPO Stornoway United Kingdom 28 40 9999 12/6 29.65 EGPO 181220Z 24028G40KT 9999 -SHRA FEW019CB SCT027 BKN033 12/06 Q1004

Show more